Time;durP1;ratioP1;P1;durP2;ratioP2;P2;SDS_P1;SDS_P2;PMS_P1;PMS_P2;Temp;Humidity;BMP_temperature;BMP_pressure;BME280_temperature;BME280_humidity;BME280_pressure;Samples;Min_cycle;Max_cycle;Signal;HPM_P1;HPM_P2
2022/07/02 00:00:15;;;;;;;4.47;2.60;;;15.20;99.90;;;;;;5098079;28;20031;-72
2022/07/02 00:02:43;;;;;;;3.65;2.58;;;15.10;99.90;;;;;;5092810;28;20052;-72
2022/07/02 00:05:13;;;;;;;7.35;2.72;;;15.10;99.90;;;;;;5079163;28;20008;-73
2022/07/02 00:07:39;;;;;;;5.80;2.55;;;15.00;99.90;;;;;;5093536;28;20046;-73
2022/07/02 00:10:06;;;;;;;6.18;2.90;;;14.90;99.90;;;;;;5093097;28;20057;-73
2022/07/02 00:12:32;;;;;;;5.53;2.92;;;14.90;99.90;;;;;;5091113;28;20066;-73
2022/07/02 00:14:59;;;;;;;4.75;2.83;;;14.80;99.90;;;;;;5096982;28;20023;-73
2022/07/02 00:17:25;;;;;;;7.50;3.08;;;14.70;99.90;;;;;;5094721;28;20016;-72
2022/07/02 00:19:52;;;;;;;5.07;2.80;;;14.70;99.90;;;;;;5078272;28;20033;-73
2022/07/02 00:22:19;;;;;;;3.42;2.80;;;14.60;99.90;;;;;;5081405;28;20024;-73
2022/07/02 00:24:46;;;;;;;4.78;2.72;;;14.60;99.90;;;;;;5080462;28;20032;-72
2022/07/02 00:27:15;;;;;;;7.47;3.67;;;14.50;99.90;;;;;;5083557;28;20107;-73
2022/07/02 00:29:57;;;;;;;5.65;2.65;;;14.50;99.90;;;;;;5083068;28;20021;-73
2022/07/02 00:32:26;;;;;;;4.07;2.47;;;14.50;99.90;;;;;;5095543;28;20023;-72
2022/07/02 00:34:54;;;;;;;6.20;2.92;;;14.40;99.90;;;;;;5085490;28;20489;-72
2022/07/02 00:37:21;;;;;;;6.13;3.05;;;14.40;99.90;;;;;;5091915;28;20032;-72
2022/07/02 00:39:47;;;;;;;4.03;2.90;;;14.40;99.90;;;;;;5089064;28;20039;-72
2022/07/02 00:42:14;;;;;;;6.88;2.85;;;14.30;99.90;;;;;;5092049;28;20012;-73
2022/07/02 00:44:41;;;;;;;4.18;2.75;;;14.30;99.90;;;;;;5090624;28;20024;-73
2022/07/02 00:47:08;;;;;;;7.05;2.58;;;14.30;99.90;;;;;;5094623;28;20012;-73
2022/07/02 00:49:37;;;;;;;7.18;2.65;;;14.30;99.90;;;;;;5095819;28;20080;-73
2022/07/02 00:52:04;;;;;;;6.90;3.00;;;14.30;99.90;;;;;;5076850;28;20020;-73
2022/07/02 00:54:31;;;;;;;9.05;2.88;;;14.30;99.90;;;;;;5077649;28;20037;-73
2022/07/02 00:56:57;;;;;;;13.07;2.70;;;14.20;99.90;;;;;;5079689;28;20020;-73
2022/07/02 00:59:24;;;;;;;3.92;2.92;;;14.20;99.90;;;;;;5083076;28;20031;-73
2022/07/02 01:01:50;;;;;;;4.45;2.90;;;14.20;99.90;;;;;;5084591;28;20028;-73
2022/07/02 01:04:16;;;;;;;7.07;3.08;;;14.20;99.90;;;;;;5084240;28;20021;-73
2022/07/02 01:06:43;;;;;;;3.33;2.10;;;14.20;99.90;;;;;;5099341;28;20020;-73
2022/07/02 01:12:00;;;;;;;6.85;3.13;;;14.10;99.90;;;;;;5093492;28;20472;-72
2022/07/02 01:14:27;;;;;;;6.65;3.08;;;14.10;99.90;;;;;;5093597;28;20026;-73
2022/07/02 01:16:54;;;;;;;4.82;2.65;;;14.10;99.90;;;;;;5097082;28;20036;-73
2022/07/02 01:19:21;;;;;;;3.22;2.40;;;14.10;99.90;;;;;;5095306;28;20016;-73
2022/07/02 01:22:06;;;;;;;7.30;3.28;;;14.00;99.90;;;;;;5097710;28;20032;-73
2022/07/02 01:24:31;;;;;;;4.10;3.25;;;14.00;99.90;;;;;;5099908;28;20073;-73
2022/07/02 01:26:57;;;;;;;2.70;2.38;;;13.90;99.90;;;;;;5087483;28;20044;-73
2022/07/02 01:29:23;;;;;;;3.22;2.50;;;13.90;99.90;;;;;;5082361;28;20027;-73
2022/07/02 01:31:49;;;;;;;5.78;2.70;;;13.80;99.90;;;;;;5082468;28;20032;-73
2022/07/02 01:34:14;;;;;;;5.32;2.75;;;13.80;99.90;;;;;;5084943;28;20024;-73
2022/07/02 01:36:40;;;;;;;6.97;2.83;;;13.80;99.90;;;;;;5083955;28;20477;-73
2022/07/02 01:39:06;;;;;;;4.93;2.78;;;13.80;99.90;;;;;;5090347;28;20124;-73
2022/07/02 01:41:41;;;;;;;7.68;3.15;;;13.70;99.90;;;;;;5085414;28;20025;-73
2022/07/02 01:44:09;;;;;;;4.45;2.67;;;13.70;99.90;;;;;;5087600;28;20663;-72
2022/07/02 01:46:36;;;;;;;3.25;2.45;;;13.70;99.90;;;;;;5089568;28;20031;-73
2022/07/02 01:49:02;;;;;;;6.40;2.83;;;13.60;99.90;;;;;;5095541;28;20031;-72
2022/07/02 01:51:28;;;;;;;6.70;2.88;;;13.60;99.90;;;;;;5090874;28;20131;-73
2022/07/02 01:53:55;;;;;;;3.60;2.65;;;13.60;99.90;;;;;;5097356;28;20052;-73
2022/07/02 01:56:21;;;;;;;6.18;2.55;;;13.60;99.90;;;;;;5094874;28;20035;-73
2022/07/02 01:58:47;;;;;;;3.53;2.45;;;13.50;99.90;;;;;;5091624;28;20028;-73
2022/07/02 02:01:12;;;;;;;3.30;2.53;;;13.50;99.90;;;;;;5093420;28;20031;-73
2022/07/02 02:03:38;;;;;;;4.55;3.35;;;13.50;99.90;;;;;;5082900;28;20392;-73
2022/07/02 02:06:04;;;;;;;5.65;2.70;;;13.40;99.90;;;;;;5082836;28;20025;-73
2022/07/02 02:08:30;;;;;;;4.55;3.40;;;13.40;99.90;;;;;;5089193;28;20029;-73
2022/07/02 02:10:56;;;;;;;7.03;2.90;;;13.30;99.90;;;;;;5091180;28;20028;-73
2022/07/02 02:13:22;;;;;;;7.43;3.13;;;13.30;99.90;;;;;;5091614;28;20028;-73
2022/07/02 02:15:48;;;;;;;6.63;2.80;;;13.30;99.90;;;;;;5088654;28;20016;-73
2022/07/02 02:18:14;;;;;;;3.65;2.75;;;13.30;99.90;;;;;;5094175;28;20097;-73
2022/07/02 02:20:40;;;;;;;3.63;2.55;;;13.30;99.90;;;;;;5091257;28;20023;-72
2022/07/02 02:23:06;;;;;;;5.20;3.45;;;13.30;99.90;;;;;;5095945;28;20468;-73
2022/07/02 02:25:33;;;;;;;3.60;2.78;;;13.20;99.90;;;;;;5095372;28;20020;-73
2022/07/02 02:27:59;;;;;;;5.45;2.70;;;13.20;99.90;;;;;;5098199;28;20027;-73
2022/07/02 02:30:25;;;;;;;3.70;3.30;;;13.20;99.90;;;;;;5083028;28;20393;-73
2022/07/02 02:32:51;;;;;;;3.95;2.90;;;13.10;99.90;;;;;;5080027;28;20382;-73
2022/07/02 02:35:17;;;;;;;5.43;2.75;;;13.10;99.90;;;;;;5081923;28;20023;-73
2022/07/02 02:37:43;;;;;;;3.45;3.05;;;13.10;99.90;;;;;;5082765;28;20020;-73
2022/07/02 02:40:09;;;;;;;4.22;2.75;;;13.10;99.90;;;;;;5084091;28;20012;-74
2022/07/02 02:42:36;;;;;;;4.20;3.08;;;13.10;99.90;;;;;;5087179;28;20047;-73
2022/07/02 02:45:02;;;;;;;3.47;2.92;;;13.00;99.90;;;;;;5086281;28;20017;-72
2022/07/02 02:47:28;;;;;;;8.00;3.08;;;13.00;99.90;;;;;;5089764;28;20027;-73
2022/07/02 02:49:54;;;;;;;5.68;2.83;;;13.00;99.90;;;;;;5044330;28;1322134;-73
2022/07/02 02:52:19;;;;;;;3.80;2.75;;;13.00;99.90;;;;;;5099139;28;20039;-73
2022/07/02 02:54:46;;;;;;;7.45;3.13;;;12.90;99.90;;;;;;5095639;28;20043;-73
2022/07/02 02:57:12;;;;;;;4.28;2.90;;;12.90;99.90;;;;;;5080745;28;20030;-72
2022/07/02 02:59:38;;;;;;;4.78;3.30;;;12.90;99.90;;;;;;5094462;28;20153;-73
2022/07/02 03:02:04;;;;;;;3.70;2.80;;;12.90;99.90;;;;;;5096051;28;20028;-73
2022/07/02 03:04:30;;;;;;;4.35;2.80;;;12.80;99.90;;;;;;5094440;28;20012;-73
2022/07/02 03:06:56;;;;;;;5.88;3.33;;;12.80;99.90;;;;;;5098651;28;20020;-73
2022/07/02 03:09:22;;;;;;;4.25;2.92;;;12.80;99.90;;;;;;5095722;28;20024;-72
2022/07/02 03:11:48;;;;;;;5.03;2.70;;;12.70;99.90;;;;;;5077988;28;20025;-73
2022/07/02 03:14:13;;;;;;;4.10;2.50;;;12.70;99.90;;;;;;5081744;28;20106;-73
2022/07/02 03:16:39;;;;;;;3.92;2.72;;;12.80;99.90;;;;;;5089407;28;20027;-72
2022/07/02 03:19:05;;;;;;;4.43;2.80;;;12.70;99.90;;;;;;5082913;28;20410;-72
2022/07/02 03:21:31;;;;;;;8.07;3.33;;;12.70;99.90;;;;;;5084455;28;20062;-73
2022/07/02 03:23:57;;;;;;;6.32;2.83;;;12.70;99.90;;;;;;5092713;28;20450;-73
2022/07/02 03:26:22;;;;;;;3.72;2.92;;;12.70;99.90;;;;;;5090566;28;20091;-73
2022/07/02 03:28:48;;;;;;;5.28;3.25;;;12.70;99.90;;;;;;5087728;28;20032;-73
2022/07/02 03:31:14;;;;;;;4.88;2.90;;;12.70;99.90;;;;;;5093753;28;20024;-73
2022/07/02 03:33:40;;;;;;;9.73;3.60;;;12.70;99.90;;;;;;5092076;28;20032;-73
2022/07/02 03:36:06;;;;;;;4.15;3.08;;;12.70;99.90;;;;;;5098199;28;20101;-73
2022/07/02 03:38:32;;;;;;;4.05;3.05;;;12.70;99.90;;;;;;5090969;28;20057;-73
2022/07/02 03:40:58;;;;;;;5.55;3.13;;;12.60;99.90;;;;;;5079109;28;20382;-73
2022/07/02 03:43:23;;;;;;;5.03;3.28;;;12.60;99.90;;;;;;5093034;28;20566;-73
2022/07/02 03:45:49;;;;;;;10.45;3.13;;;12.60;99.90;;;;;;5092641;28;20054;-73
2022/07/02 03:48:15;;;;;;;4.78;3.17;;;12.50;99.90;;;;;;5091962;28;20089;-73
2022/07/02 03:50:42;;;;;;;9.60;3.65;;;12.50;99.90;;;;;;5097492;28;20071;-73
2022/07/02 03:53:09;;;;;;;5.72;3.35;;;12.50;99.90;;;;;;5096408;28;20499;-73
2022/07/02 03:55:34;;;;;;;6.00;3.80;;;12.40;99.90;;;;;;5087335;28;20069;-73
2022/07/02 03:58:01;;;;;;;3.83;3.03;;;12.40;99.90;;;;;;5080354;28;20020;-72
2022/07/02 04:00:27;;;;;;;5.05;3.38;;;12.40;99.90;;;;;;5079840;28;20025;-73
2022/07/02 04:02:52;;;;;;;8.05;3.40;;;12.40;99.90;;;;;;5083007;28;20366;-72
2022/07/02 04:05:19;;;;;;;4.95;3.35;;;12.40;99.90;;;;;;5082749;28;20009;-73
2022/07/02 04:07:44;;;;;;;4.53;3.72;;;12.30;99.90;;;;;;5093124;28;20024;-72
2022/07/02 04:10:10;;;;;;;4.50;3.50;;;12.30;99.90;;;;;;5086242;28;20031;-72
2022/07/02 04:12:36;;;;;;;6.03;3.40;;;12.30;99.90;;;;;;5086586;28;20028;-73
2022/07/02 04:15:03;;;;;;;7.10;3.08;;;12.30;99.90;;;;;;5090248;28;20038;-72
2022/07/02 04:17:29;;;;;;;5.78;2.97;;;12.30;99.90;;;;;;5093329;28;20083;-73
2022/07/02 04:19:56;;;;;;;3.80;3.00;;;12.30;99.90;;;;;;5092239;28;20477;-72
2022/07/02 04:22:22;;;;;;;5.95;3.30;;;12.30;99.90;;;;;;5089748;28;20025;-72
2022/07/02 04:24:48;;;;;;;6.20;3.20;;;12.30;99.90;;;;;;5090574;28;20016;-72
2022/07/02 04:27:14;;;;;;;4.95;3.10;;;12.30;99.90;;;;;;5083209;28;20480;-73
2022/07/02 04:29:41;;;;;;;5.50;3.22;;;12.30;99.90;;;;;;5079086;28;20496;-72
2022/07/02 04:32:07;;;;;;;4.88;3.25;;;12.30;99.90;;;;;;5080657;28;20484;-72
2022/07/02 04:34:33;;;;;;;6.25;3.13;;;12.30;99.90;;;;;;5091800;28;20024;-73
2022/07/02 04:36:59;;;;;;;4.85;3.10;;;12.30;99.90;;;;;;5083596;28;21449;-73
2022/07/02 04:39:25;;;;;;;5.57;3.13;;;12.40;99.90;;;;;;5085140;28;20115;-72
2022/07/02 04:41:51;;;;;;;5.13;3.03;;;12.40;99.90;;;;;;5085760;28;20047;-73
2022/07/02 04:44:17;;;;;;;8.52;2.83;;;12.50;99.90;;;;;;5088663;28;20016;-72
2022/07/02 04:46:43;;;;;;;4.90;3.35;;;12.50;99.90;;;;;;5088216;28;20095;-72
2022/07/02 04:49:09;;;;;;;10.50;3.25;;;12.60;99.90;;;;;;5093073;28;20159;-73
2022/07/02 04:51:35;;;;;;;3.65;3.33;;;12.60;99.90;;;;;;5092793;28;20143;-72
2022/07/02 04:54:00;;;;;;;3.75;2.78;;;12.60;99.90;;;;;;5094279;28;20097;-73
2022/07/02 04:56:27;;;;;;;7.22;2.92;;;12.70;99.90;;;;;;5095882;28;20039;-72
2022/07/02 04:58:54;;;;;;;5.32;3.03;;;12.70;99.90;;;;;;5087958;28;20476;-72
2022/07/02 05:01:23;;;;;;;6.38;3.22;;;12.80;99.90;;;;;;5078105;28;20031;-72
2022/07/02 05:03:50;;;;;;;3.97;3.00;;;12.80;99.90;;;;;;5077920;28;20055;-73
2022/07/02 05:06:16;;;;;;;3.63;2.90;;;12.90;99.90;;;;;;5081552;28;20032;-73
2022/07/02 05:08:42;;;;;;;6.03;3.65;;;12.90;99.90;;;;;;5081390;28;20384;-73
2022/07/02 05:11:08;;;;;;;7.40;3.47;;;13.00;99.90;;;;;;5084507;28;20029;-73
2022/07/02 05:13:33;;;;;;;6.45;3.10;;;13.10;99.90;;;;;;5085252;28;20903;-73
2022/07/02 05:15:59;;;;;;;6.45;3.30;;;13.20;99.90;;;;;;5090881;28;20050;-73
2022/07/02 05:18:25;;;;;;;3.63;3.15;;;13.30;99.90;;;;;;5094977;28;20365;-73
2022/07/02 05:20:51;;;;;;;5.85;3.33;;;13.30;99.90;;;;;;5093828;28;20016;-73
2022/07/02 05:23:17;;;;;;;3.15;2.67;;;13.40;99.90;;;;;;5096398;28;20012;-73
2022/07/02 05:25:42;;;;;;;4.05;3.10;;;13.50;99.90;;;;;;5090727;28;20973;-73
2022/07/02 05:28:08;;;;;;;6.63;2.70;;;13.60;99.90;;;;;;5090549;28;20018;-73
2022/07/02 05:30:34;;;;;;;7.13;2.92;;;13.70;99.90;;;;;;5089934;28;20032;-73
2022/07/02 05:33:00;;;;;;;6.85;3.35;;;13.80;99.90;;;;;;5096396;28;20023;-73
2022/07/02 05:35:26;;;;;;;7.32;3.10;;;13.90;99.90;;;;;;5093395;28;20056;-73
2022/07/02 05:37:52;;;;;;;4.85;3.03;;;14.10;99.90;;;;;;5094926;28;20028;-73
2022/07/02 05:40:18;;;;;;;9.90;3.65;;;14.20;99.90;;;;;;5095867;28;20024;-73
2022/07/02 05:42:44;;;;;;;5.20;3.58;;;14.40;99.90;;;;;;5095417;28;20504;-73
2022/07/02 05:45:10;;;;;;;4.85;3.42;;;14.40;99.90;;;;;;5095043;28;20024;-73
2022/07/02 05:47:36;;;;;;;3.65;3.10;;;14.50;99.90;;;;;;5099986;28;20081;-74
2022/07/02 05:50:02;;;;;;;8.20;4.00;;;14.60;99.90;;;;;;5091324;28;20040;-73
2022/07/02 05:52:28;;;;;;;4.13;3.70;;;14.70;99.90;;;;;;5092284;28;20024;-74
2022/07/02 05:54:54;;;;;;;6.97;3.83;;;14.80;99.90;;;;;;5091441;28;20087;-73
2022/07/02 05:57:19;;;;;;;4.68;3.45;;;14.80;99.90;;;;;;5096876;28;20416;-73
2022/07/02 05:59:45;;;;;;;7.50;3.03;;;14.90;99.90;;;;;;5096128;28;20047;-74
2022/07/02 06:02:11;;;;;;;6.28;3.50;;;15.00;99.90;;;;;;5097232;28;20027;-74
2022/07/02 06:04:37;;;;;;;8.52;3.40;;;15.10;99.90;;;;;;5097713;28;20488;-74
2022/07/02 06:09:47;;;;;;;5.78;2.80;;;15.40;99.90;;;;;;5082805;28;20035;-73
2022/07/02 06:12:13;;;;;;;5.60;3.45;;;15.50;99.90;;;;;;5082225;28;20025;-74
2022/07/02 06:14:39;;;;;;;4.32;2.63;;;15.60;99.90;;;;;;5087288;28;20092;-73
2022/07/02 06:17:05;;;;;;;5.43;2.85;;;15.80;99.90;;;;;;5092504;28;20031;-73
2022/07/02 06:19:31;;;;;;;5.63;2.83;;;15.90;99.90;;;;;;5090385;28;20031;-73
2022/07/02 06:21:57;;;;;;;4.15;3.33;;;16.00;99.90;;;;;;5087012;28;20013;-73
2022/07/02 06:24:22;;;;;;;4.85;3.40;;;16.00;99.90;;;;;;5091162;28;20069;-73
2022/07/02 06:26:48;;;;;;;6.07;3.10;;;16.00;99.90;;;;;;5090506;28;20019;-74
2022/07/02 06:29:14;;;;;;;6.70;3.65;;;16.20;99.90;;;;;;5094137;28;20024;-73
2022/07/02 06:31:40;;;;;;;6.13;3.30;;;16.30;99.90;;;;;;5094734;28;20077;-74
2022/07/02 06:34:05;;;;;;;3.25;2.80;;;16.40;99.90;;;;;;5095759;28;20107;-74
2022/07/02 06:36:31;;;;;;;6.47;3.38;;;16.60;99.90;;;;;;5096381;28;20087;-74
2022/07/02 06:38:57;;;;;;;6.18;3.60;;;16.70;99.90;;;;;;5079668;28;20070;-74
2022/07/02 06:44:08;;;;;;;5.60;3.47;;;16.80;99.90;;;;;;5080606;28;20078;-74
2022/07/02 06:46:37;;;;;;;9.13;3.40;;;16.90;99.90;;;;;;5082614;28;20048;-74
2022/07/02 06:49:02;;;;;;;4.38;2.88;;;16.90;99.90;;;;;;5087849;28;20020;-73
2022/07/02 06:51:28;;;;;;;6.07;3.50;;;17.00;99.90;;;;;;5090856;28;20051;-74
2022/07/02 06:54:00;;;;;;;6.55;3.45;;;17.00;99.90;;;;;;5089148;28;20103;-74
2022/07/02 06:56:28;;;;;;;6.75;3.67;;;17.20;99.90;;;;;;5094033;28;20438;-74
2022/07/02 06:58:55;;;;;;;4.82;3.10;;;17.40;99.90;;;;;;5083931;28;20025;-74
2022/07/02 07:01:20;;;;;;;5.60;3.70;;;17.50;99.90;;;;;;5092119;28;20397;-74
2022/07/02 07:03:46;;;;;;;11.68;3.90;;;17.60;99.90;;;;;;5093252;28;20055;-74
2022/07/02 07:06:12;;;;;;;5.05;3.40;;;17.70;99.90;;;;;;5087171;28;20052;-74
2022/07/02 07:08:38;;;;;;;8.15;4.07;;;17.70;99.90;;;;;;5081783;28;20031;-74
2022/07/02 07:11:03;;;;;;;16.80;5.55;;;17.90;99.90;;;;;;5083264;28;20906;-74
2022/07/02 07:13:29;;;;;;;11.30;3.08;;;17.90;99.90;;;;;;5094399;28;20106;-74
2022/07/02 07:15:55;;;;;;;8.30;3.58;;;18.00;99.90;;;;;;5086467;28;20020;-74
2022/07/02 07:18:21;;;;;;;4.18;2.72;;;18.10;99.90;;;;;;5089914;28;20016;-74
2022/07/02 07:20:49;;;;;;;42.60;11.73;;;18.10;99.90;;;;;;5088564;28;20032;-74
2022/07/02 07:23:15;;;;;;;6.85;2.50;;;18.20;99.90;;;;;;5092454;28;20024;-74
2022/07/02 07:25:40;;;;;;;47.95;13.02;;;18.30;99.90;;;;;;5090924;28;20098;-74
2022/07/02 07:28:06;;;;;;;8.93;2.80;;;18.40;99.90;;;;;;5095846;28;20035;-73
2022/07/02 07:30:32;;;;;;;13.98;4.13;;;18.50;99.90;;;;;;5096540;28;20028;-74
2022/07/02 07:32:58;;;;;;;14.40;4.28;;;18.50;99.90;;;;;;5088491;28;20453;-73
2022/07/02 07:35:24;;;;;;;8.60;2.20;;;18.70;99.90;;;;;;5079531;28;20032;-73
2022/07/02 07:37:59;;;;;;;2.75;2.22;;;18.80;99.90;;;;;;5079747;28;20029;-74
2022/07/02 07:40:27;;;;;;;3.97;2.15;;;18.90;99.90;;;;;;5082148;28;20036;-73
2022/07/02 07:42:52;;;;;;;7.90;2.33;;;18.90;99.90;;;;;;5081466;28;20036;-74
2022/07/02 07:45:18;;;;;;;6.15;2.25;;;18.80;99.90;;;;;;5085441;28;20017;-74
2022/07/02 07:47:44;;;;;;;2.78;2.00;;;19.10;99.90;;;;;;5097822;28;20045;-73
2022/07/02 07:50:10;;;;;;;4.15;1.65;;;19.30;99.90;;;;;;5093537;28;20131;-73
2022/07/02 07:52:36;;;;;;;7.22;2.28;;;19.40;99.90;;;;;;5087791;28;20029;-73
2022/07/02 07:55:02;;;;;;;6.53;1.92;;;19.40;99.90;;;;;;5090980;28;20114;-75
2022/07/02 07:57:27;;;;;;;4.25;1.73;;;19.60;99.90;;;;;;5078320;28;20082;-74
2022/07/02 07:59:53;;;;;;;3.38;1.60;;;19.80;99.90;;;;;;5083733;28;20077;-74
2022/07/02 08:02:19;;;;;;;4.57;2.05;;;19.90;99.90;;;;;;5087284;28;20020;-73
2022/07/02 08:04:45;;;;;;;2.75;1.63;;;20.00;99.90;;;;;;5089188;28;20419;-73
2022/07/02 08:07:11;;;;;;;5.05;1.88;;;20.10;99.90;;;;;;5075457;28;20020;-74
2022/07/02 08:09:37;;;;;;;3.38;2.33;;;20.30;99.90;;;;;;5088013;28;20135;-73
2022/07/02 08:12:04;;;;;;;2.15;1.60;;;20.50;99.90;;;;;;5089564;28;20050;-75
2022/07/02 08:14:30;;;;;;;5.40;2.00;;;20.50;99.90;;;;;;5089789;28;20024;-75
2022/07/02 08:16:56;;;;;;;2.97;1.95;;;20.60;99.90;;;;;;5092364;28;20031;-74
2022/07/02 08:19:21;;;;;;;12.18;3.58;;;20.60;99.90;;;;;;5092084;28;20502;-73
2022/07/02 08:21:47;;;;;;;42.17;4.68;;;20.80;99.90;;;;;;5093570;28;20021;-73
2022/07/02 08:24:13;;;;;;;8.07;3.33;;;20.80;99.90;;;;;;5091220;28;20104;-74
2022/07/02 08:26:39;;;;;;;54.58;8.60;;;20.80;99.90;;;;;;5091581;28;20019;-75
2022/07/02 08:29:04;;;;;;;2.72;1.48;;;20.80;99.90;;;;;;5087618;28;20442;-74
2022/07/02 08:31:30;;;;;;;3.50;1.77;;;21.00;99.90;;;;;;5082838;28;20035;-73
2022/07/02 08:33:56;;;;;;;5.20;1.85;;;21.20;99.90;;;;;;5086632;28;20115;-73
2022/07/02 08:36:22;;;;;;;4.43;1.70;;;21.20;99.90;;;;;;5093855;28;20042;-74
2022/07/02 08:38:48;;;;;;;2.67;1.63;;;21.20;99.90;;;;;;5087915;28;20028;-74
2022/07/02 08:41:15;;;;;;;11.68;2.78;;;21.40;99.90;;;;;;5091673;28;20024;-74
2022/07/02 08:43:44;;;;;;;5.65;1.92;;;21.60;99.90;;;;;;5092352;28;20024;-74
2022/07/02 08:46:12;;;;;;;6.60;1.70;;;21.70;99.90;;;;;;5095097;28;20023;-75
2022/07/02 08:48:39;;;;;;;3.47;1.60;;;21.80;99.90;;;;;;5093866;28;20027;-74
2022/07/02 08:51:07;;;;;;;1.88;1.33;;;21.90;99.90;;;;;;5095437;28;20056;-74
2022/07/02 08:53:33;;;;;;;3.45;1.60;;;22.10;99.90;;;;;;5092293;28;20080;-74
2022/07/02 08:56:00;;;;;;;2.00;1.40;;;22.20;99.90;;;;;;5086614;28;20464;-74
2022/07/02 08:58:27;;;;;;;4.18;1.33;;;22.40;99.90;;;;;;5095201;28;20028;-74
2022/07/02 09:00:53;;;;;;;2.45;1.45;;;22.60;99.90;;;;;;5090796;28;20439;-74
2022/07/02 09:03:21;;;;;;;1.90;1.30;;;22.60;99.90;;;;;;5091751;28;20016;-74
2022/07/02 09:05:50;;;;;;;3.58;2.00;;;22.70;99.90;;;;;;5087660;28;20054;-73
2022/07/02 09:08:17;;;;;;;2.38;1.10;;;22.70;99.90;;;;;;5081582;28;20058;-74
2022/07/02 09:10:45;;;;;;;4.80;1.60;;;22.80;99.90;;;;;;5081957;28;20021;-74
2022/07/02 09:13:12;;;;;;;15.77;1.65;;;23.00;99.90;;;;;;5089281;28;20028;-74
2022/07/02 09:15:38;;;;;;;2.90;1.00;;;23.10;99.90;;;;;;5084597;28;20575;-74
2022/07/02 09:18:04;;;;;;;3.65;1.20;;;23.10;99.90;;;;;;5092055;28;20603;-73
2022/07/02 09:20:30;;;;;;;1.88;0.98;;;23.20;99.90;;;;;;5091175;28;20126;-73
2022/07/02 09:22:55;;;;;;;2.85;1.08;;;23.30;99.90;;;;;;5096051;28;20504;-75
2022/07/02 09:25:25;;;;;;;1.20;1.00;;;23.40;99.90;;;;;;5095498;28;20018;-73
2022/07/02 09:28:00;;;;;;;1.20;1.00;;;23.50;99.90;;;;;;5099366;28;20023;-73
2022/07/02 09:30:30;;;;;;;2.13;1.00;;;23.60;99.90;;;;;;5096926;28;20024;-74
2022/07/02 09:35:40;;;;;;;1.17;0.90;;;23.70;99.90;;;;;;5096770;28;20093;-74
2022/07/02 09:38:11;;;;;;;2.80;0.90;;;23.80;99.90;;;;;;5092801;28;20032;-74
2022/07/02 09:40:57;;;;;;;2.95;1.10;;;23.90;99.90;;;;;;5097132;28;20472;-75
2022/07/02 09:43:31;;;;;;;2.10;1.10;;;24.10;99.60;;;;;;5085430;28;20031;-73
2022/07/02 09:45:59;;;;;;;1.88;1.17;;;24.10;97.20;;;;;;5087932;28;20039;-74
2022/07/02 09:48:26;;;;;;;3.17;1.60;;;24.20;99.20;;;;;;5095804;28;20024;-75
2022/07/02 09:50:55;;;;;;;2.90;1.17;;;24.20;98.70;;;;;;5092300;28;20056;-75
2022/07/02 09:53:21;;;;;;;1.98;1.10;;;24.20;99.90;;;;;;5092028;28;20085;-75
2022/07/02 09:55:49;;;;;;;5.95;1.20;;;24.30;99.20;;;;;;5095673;28;20028;-74
2022/07/02 09:58:25;;;;;;;4.45;1.10;;;24.40;98.30;;;;;;5095507;28;20019;-74
2022/07/02 10:00:52;;;;;;;1.88;1.25;;;24.60;99.70;;;;;;5096769;28;20035;-74
2022/07/02 10:03:18;;;;;;;6.75;1.48;;;24.70;98.20;;;;;;5097908;28;20016;-74
2022/07/02 10:05:48;;;;;;;3.42;1.17;;;24.80;96.70;;;;;;5096183;28;20023;-75
2022/07/02 10:08:14;;;;;;;2.05;1.08;;;25.00;96.90;;;;;;5098128;28;20015;-74
2022/07/02 10:10:40;;;;;;;3.33;1.10;;;24.80;95.20;;;;;;5097924;28;20869;-73
2022/07/02 10:13:08;;;;;;;1.92;0.95;;;24.70;95.60;;;;;;5092174;28;20077;-74
2022/07/02 10:15:40;;;;;;;5.13;1.48;;;24.70;96.70;;;;;;5086925;28;20021;-76
2022/07/02 10:18:06;;;;;;;2.30;1.02;;;24.80;97.90;;;;;;5087094;28;20020;-75
2022/07/02 10:20:34;;;;;;;5.25;1.15;;;24.90;96.80;;;;;;5095337;28;20032;-75
2022/07/02 10:23:02;;;;;;;6.40;1.08;;;25.00;97.20;;;;;;5096670;28;20031;-75
2022/07/02 10:25:28;;;;;;;1.70;0.98;;;25.00;95.80;;;;;;5094537;28;20500;-75
2022/07/02 10:27:57;;;;;;;5.38;1.00;;;25.20;98.00;;;;;;5097034;28;20036;-75
2022/07/02 10:33:22;;;;;;;1.63;1.00;;;25.40;94.80;;;;;;5080532;28;20020;-76
2022/07/02 10:35:49;;;;;;;5.93;1.02;;;25.40;96.50;;;;;;5083866;28;20365;-75
2022/07/02 10:38:15;;;;;;;2.47;0.90;;;25.50;95.80;;;;;;5089154;28;20013;-75
2022/07/02 10:40:50;;;;;;;2.15;1.00;;;25.60;96.90;;;;;;5083369;28;20020;-75
2022/07/02 10:43:19;;;;;;;5.82;1.00;;;25.60;94.80;;;;;;5085443;28;20128;-75
2022/07/02 10:45:46;;;;;;;3.67;1.30;;;25.80;94.80;;;;;;5089709;28;20026;-74
2022/07/02 10:48:13;;;;;;;3.17;1.00;;;25.90;94.20;;;;;;5088002;28;20078;-75
2022/07/02 10:50:44;;;;;;;3.60;1.02;;;25.90;93.00;;;;;;5092337;28;20056;-75
2022/07/02 10:53:14;;;;;;;2.67;0.93;;;25.90;95.10;;;;;;5090858;28;20013;-75
2022/07/02 10:55:42;;;;;;;8.63;1.33;;;26.10;93.50;;;;;;5094094;28;20433;-75
2022/07/02 10:58:17;;;;;;;1.98;1.05;;;26.20;93.90;;;;;;5094610;28;20024;-76
2022/07/02 11:00:42;;;;;;;7.57;1.05;;;26.30;92.10;;;;;;5096772;28;20109;-75
2022/07/02 11:03:12;;;;;;;4.85;1.50;;;26.30;93.50;;;;;;5092121;28;20025;-75
2022/07/02 11:05:51;;;;;;;5.10;0.90;;;26.50;92.30;;;;;;5079731;28;20431;-75
2022/07/02 11:08:45;;;;;;;3.53;1.10;;;26.60;93.30;;;;;;5080739;28;20021;-75
2022/07/02 11:11:20;;;;;;;2.85;1.27;;;26.60;91.90;;;;;;5095339;28;20016;-75
2022/07/02 11:14:01;;;;;;;4.25;0.90;;;26.70;92.00;;;;;;5083317;28;20051;-76
2022/07/02 11:16:28;;;;;;;1.08;0.70;;;26.70;91.80;;;;;;5091052;28;20016;-76
2022/07/02 11:18:56;;;;;;;3.10;1.20;;;26.70;92.90;;;;;;5086641;28;20123;-74
2022/07/02 11:21:23;;;;;;;4.85;1.10;;;26.70;93.00;;;;;;5092210;28;20095;-74
2022/07/02 11:23:50;;;;;;;1.42;0.80;;;26.90;91.90;;;;;;5090597;28;20012;-74
2022/07/02 11:26:20;;;;;;;4.68;1.13;;;26.90;90.60;;;;;;5095544;28;20016;-73
2022/07/02 11:28:47;;;;;;;2.28;0.90;;;26.90;91.10;;;;;;5093410;28;20058;-74
2022/07/02 11:31:13;;;;;;;5.95;1.00;;;27.10;90.10;;;;;;5096189;28;20024;-74
2022/07/02 11:33:49;;;;;;;3.92;1.10;;;27.10;91.00;;;;;;5079862;28;20021;-75
2022/07/02 11:36:15;;;;;;;2.17;0.80;;;27.20;90.80;;;;;;5079379;28;20024;-73
2022/07/02 11:38:45;;;;;;;3.70;1.15;;;27.20;90.30;;;;;;5082105;28;20058;-73
2022/07/02 11:41:43;;;;;;;1.98;0.90;;;27.40;88.50;;;;;;5077093;28;20019;-75
2022/07/02 11:44:15;;;;;;;3.28;1.10;;;27.50;91.30;;;;;;5080675;28;20027;-74
2022/07/02 11:46:43;;;;;;;4.70;1.38;;;27.60;91.50;;;;;;5083789;28;20077;-73
2022/07/02 11:49:17;;;;;;;1.30;0.80;;;27.70;89.50;;;;;;5083834;28;20032;-74
2022/07/02 11:51:45;;;;;;;1.25;0.73;;;27.80;90.60;;;;;;5086795;28;20047;-74
2022/07/02 11:54:12;;;;;;;3.25;0.73;;;27.90;90.70;;;;;;5086342;28;20027;-75
2022/07/02 11:56:39;;;;;;;4.35;1.17;;;27.90;89.50;;;;;;5089398;28;20110;-74
2022/07/02 11:59:09;;;;;;;1.92;0.73;;;27.70;89.70;;;;;;5089604;28;20488;-75
2022/07/02 12:01:36;;;;;;;1.90;0.90;;;27.70;88.40;;;;;;5094051;28;20027;-74
2022/07/02 12:04:05;;;;;;;2.13;0.80;;;27.90;90.60;;;;;;5097565;28;20510;-74
2022/07/02 12:06:49;;;;;;;3.45;0.75;;;28.00;90.60;;;;;;5093803;28;20441;-74
2022/07/02 12:09:18;;;;;;;3.75;1.15;;;28.20;87.90;;;;;;5085833;28;20400;-74
2022/07/02 12:11:45;;;;;;;1.10;0.70;;;28.20;86.70;;;;;;5089993;28;20025;-74
2022/07/02 12:14:12;;;;;;;3.58;0.90;;;28.20;87.00;;;;;;5081974;28;20032;-73
2022/07/02 12:16:40;;;;;;;4.85;0.80;;;28.20;82.80;;;;;;5087272;28;20034;-73
2022/07/02 12:19:16;;;;;;;2.65;0.93;;;28.30;83.10;;;;;;5091745;28;20036;-75
2022/07/02 12:21:49;;;;;;;1.95;0.80;;;28.40;85.10;;;;;;5082458;28;20013;-74
2022/07/02 12:24:24;;;;;;;6.13;1.10;;;28.40;84.40;;;;;;5088594;28;20019;-74
2022/07/02 12:26:53;;;;;;;3.00;0.98;;;28.50;86.70;;;;;;5084166;28;20397;-74
2022/07/02 12:32:11;;;;;;;1.30;0.90;;;28.80;79.80;;;;;;5089655;28;20035;-74
2022/07/02 12:34:59;;;;;;;2.58;0.80;;;28.80;81.40;;;;;;5092139;28;20024;-74
2022/07/02 12:37:28;;;;;;;1.92;0.90;;;28.80;81.00;;;;;;5094486;28;20462;-73
2022/07/02 12:40:10;;;;;;;4.03;0.93;;;28.90;83.20;;;;;;5095513;28;20369;-73
2022/07/02 12:43:01;;;;;;;1.58;1.17;;;29.10;79.30;;;;;;5077132;28;20404;-73
2022/07/02 12:45:29;;;;;;;3.38;0.80;;;29.20;80.30;;;;;;5077620;28;20129;-73
2022/07/02 12:48:07;;;;;;;2.72;0.80;;;29.30;79.20;;;;;;5080006;28;20048;-73
2022/07/02 12:50:37;;;;;;;3.80;1.23;;;29.40;79.00;;;;;;5094976;28;20051;-73
2022/07/02 12:53:18;;;;;;;2.22;1.00;;;29.50;80.70;;;;;;5099234;28;20400;-73
2022/07/02 12:55:55;;;;;;;3.30;0.82;;;29.60;81.20;;;;;;5113175;28;20515;-73
2022/07/02 12:58:22;;;;;;;4.80;1.38;;;29.90;82.20;;;;;;5096205;28;20016;-74
2022/07/02 13:00:48;;;;;;;2.30;1.02;;;30.00;80.30;;;;;;5099530;28;20388;-73
2022/07/02 13:03:16;;;;;;;4.60;0.93;;;29.90;81.30;;;;;;5100068;28;20016;-74